sensor_id;sensor_type;location;lat;lon;timestamp;pressure;altitude;pressure_sealevel;temperature;humidity
49473;BME280;67434;50.956;6.918;2023-04-07T00:01:39;100929.06;;;7.48;91.79
49473;BME280;67434;50.956;6.918;2023-04-07T00:04:25;100923.09;;;7.46;91.71
49473;BME280;67434;50.956;6.918;2023-04-07T00:07:11;100929.41;;;7.52;91.89
49473;BME280;67434;50.956;6.918;2023-04-07T00:09:56;100931.06;;;7.53;91.85
49473;BME280;67434;50.956;6.918;2023-04-07T00:12:42;100922.63;;;7.49;91.47
49473;BME280;67434;50.956;6.918;2023-04-07T00:15:28;100933.75;;;7.53;91.44
49473;BME280;67434;50.956;6.918;2023-04-07T00:18:13;100928.50;;;7.58;91.15
49473;BME280;67434;50.956;6.918;2023-04-07T00:21:00;100926.16;;;7.62;91.36
49473;BME280;67434;50.956;6.918;2023-04-07T00:23:46;100931.41;;;7.57;91.46
49473;BME280;67434;50.956;6.918;2023-04-07T00:26:32;100918.53;;;7.59;91.55
49473;BME280;67434;50.956;6.918;2023-04-07T00:29:17;100917.97;;;7.57;91.45
49473;BME280;67434;50.956;6.918;2023-04-07T00:32:03;100917.25;;;7.49;92.11
49473;BME280;67434;50.956;6.918;2023-04-07T00:34:49;100917.25;;;7.49;91.76
49473;BME280;67434;50.956;6.918;2023-04-07T00:37:36;100914.34;;;7.51;91.64
49473;BME280;67434;50.956;6.918;2023-04-07T00:40:22;100915.50;;;7.55;91.94
49473;BME280;67434;50.956;6.918;2023-04-07T00:43:08;100911.88;;;7.61;91.74
49473;BME280;67434;50.956;6.918;2023-04-07T00:45:54;100919.13;;;7.61;92.07
49473;BME280;67434;50.956;6.918;2023-04-07T00:48:40;100913.97;;;7.59;91.66
49473;BME280;67434;50.956;6.918;2023-04-07T00:51:26;100911.41;;;7.52;92.13
49473;BME280;67434;50.956;6.918;2023-04-07T00:54:11;100907.66;;;7.53;92.01
49473;BME280;67434;50.956;6.918;2023-04-07T00:56:57;100902.88;;;7.56;91.71
49473;BME280;67434;50.956;6.918;2023-04-07T00:59:43;100911.75;;;7.56;91.51
49473;BME280;67434;50.956;6.918;2023-04-07T01:02:58;100903.22;;;7.59;91.78
49473;BME280;67434;50.956;6.918;2023-04-07T01:05:53;100902.75;;;7.62;92.31
49473;BME280;67434;50.956;6.918;2023-04-07T01:08:50;100897.59;;;7.61;92.29
49473;BME280;67434;50.956;6.918;2023-04-07T01:14:40;100894.91;;;7.72;92.52
49473;BME280;67434;50.956;6.918;2023-04-07T01:17:26;100889.19;;;7.69;92.55
49473;BME280;67434;50.956;6.918;2023-04-07T01:20:15;100891.97;;;7.74;92.05
49473;BME280;67434;50.956;6.918;2023-04-07T01:23:05;100899.59;;;7.77;91.71
49473;BME280;67434;50.956;6.918;2023-04-07T01:25:59;100892.81;;;7.74;91.55
49473;BME280;67434;50.956;6.918;2023-04-07T01:29:17;100899.00;;;7.75;91.54
49473;BME280;67434;50.956;6.918;2023-04-07T01:32:04;100897.84;;;7.71;91.86
49473;BME280;67434;50.956;6.918;2023-04-07T01:34:53;100896.66;;;7.78;91.99
49473;BME280;67434;50.956;6.918;2023-04-07T01:37:40;100900.63;;;7.76;92.37
49473;BME280;67434;50.956;6.918;2023-04-07T01:40:26;100901.81;;;7.80;91.87
49473;BME280;67434;50.956;6.918;2023-04-07T01:43:13;100903.00;;;7.84;92.14
49473;BME280;67434;50.956;6.918;2023-04-07T01:46:00;100897.16;;;7.87;92.29
49473;BME280;67434;50.956;6.918;2023-04-07T01:48:47;100899.59;;;7.89;92.02
49473;BME280;67434;50.956;6.918;2023-04-07T01:51:33;100896.22;;;7.93;91.93
49473;BME280;67434;50.956;6.918;2023-04-07T01:54:20;100901.94;;;7.97;92.20
49473;BME280;67434;50.956;6.918;2023-04-07T01:57:06;100891.41;;;7.95;91.98
49473;BME280;67434;50.956;6.918;2023-04-07T01:59:52;100901.94;;;7.97;91.75
49473;BME280;67434;50.956;6.918;2023-04-07T02:02:40;100891.97;;;7.97;92.18
49473;BME280;67434;50.956;6.918;2023-04-07T02:05:28;100888.72;;;7.95;92.26
49473;BME280;67434;50.956;6.918;2023-04-07T02:08:16;100892.81;;;7.98;92.42
49473;BME280;67434;50.956;6.918;2023-04-07T02:11:05;100891.97;;;7.97;92.45
49473;BME280;67434;50.956;6.918;2023-04-07T02:13:53;100887.75;;;8.01;92.33
49473;BME280;67434;50.956;6.918;2023-04-07T02:16:40;100889.97;;;8.04;92.13
49473;BME280;67434;50.956;6.918;2023-04-07T02:19:27;100888.59;;;8.02;92.41
49473;BME280;67434;50.956;6.918;2023-04-07T02:22:15;100891.97;;;7.97;92.71
49473;BME280;67434;50.956;6.918;2023-04-07T02:25:01;100891.16;;;7.97;92.97
49473;BME280;67434;50.956;6.918;2023-04-07T02:27:47;100891.03;;;8.03;92.66
49473;BME280;67434;50.956;6.918;2023-04-07T02:30:33;100894.31;;;8.05;92.42
49473;BME280;67434;50.956;6.918;2023-04-07T02:33:20;100897.00;;;8.05;92.68
49473;BME280;67434;50.956;6.918;2023-04-07T02:36:05;100895.94;;;8.06;92.58
49473;BME280;67434;50.956;6.918;2023-04-07T02:38:51;100892.19;;;8.07;92.69
49473;BME280;67434;50.956;6.918;2023-04-07T02:41:37;100893.84;;;8.08;92.66
49473;BME280;67434;50.956;6.918;2023-04-07T02:44:22;100896.41;;;8.15;93.02
49473;BME280;67434;50.956;6.918;2023-04-07T02:47:08;100893.84;;;8.08;93.49
49473;BME280;67434;50.956;6.918;2023-04-07T02:49:54;100894.88;;;8.07;93.51
49473;BME280;67434;50.956;6.918;2023-04-07T02:52:40;100905.06;;;8.05;93.62
49473;BME280;67434;50.956;6.918;2023-04-07T02:55:25;100901.09;;;8.08;93.39
49473;BME280;67434;50.956;6.918;2023-04-07T02:58:11;100902.50;;;8.22;92.90
49473;BME280;67434;50.956;6.918;2023-04-07T03:00:57;100904.38;;;8.22;92.74
49473;BME280;67434;50.956;6.918;2023-04-07T03:03:42;100908.22;;;8.26;92.37
49473;BME280;67434;50.956;6.918;2023-04-07T03:06:29;100906.81;;;8.23;92.24
49473;BME280;67434;50.956;6.918;2023-04-07T03:09:15;100909.75;;;8.22;92.43
49473;BME280;67434;50.956;6.918;2023-04-07T03:12:01;100913.94;;;8.18;92.78
49473;BME280;67434;50.956;6.918;2023-04-07T03:14:47;100905.28;;;8.15;93.17
49473;BME280;67434;50.956;6.918;2023-04-07T03:17:33;100901.78;;;8.15;92.86
49473;BME280;67434;50.956;6.918;2023-04-07T03:20:19;100906.34;;;8.14;92.86
49473;BME280;67434;50.956;6.918;2023-04-07T03:23:05;100904.38;;;8.22;92.69
49473;BME280;67434;50.956;6.918;2023-04-07T03:25:50;100904.84;;;8.19;92.66
49473;BME280;67434;50.956;6.918;2023-04-07T03:28:36;100911.06;;;8.19;92.44
49473;BME280;67434;50.956;6.918;2023-04-07T03:31:21;100907.31;;;8.20;92.29
49473;BME280;67434;50.956;6.918;2023-04-07T03:34:07;100903.66;;;8.14;92.95
49473;BME280;67434;50.956;6.918;2023-04-07T03:36:53;100905.88;;;8.18;92.24
49473;BME280;67434;50.956;6.918;2023-04-07T03:39:38;100904.72;;;8.13;92.44
49473;BME280;67434;50.956;6.918;2023-04-07T03:42:25;100910.69;;;8.15;92.71
49473;BME280;67434;50.956;6.918;2023-04-07T03:45:11;100905.19;;;8.22;91.81
49473;BME280;67434;50.956;6.918;2023-04-07T03:47:56;100906.13;;;8.16;92.04
49473;BME280;67434;50.956;6.918;2023-04-07T03:50:42;100908.56;;;8.18;92.13
49473;BME280;67434;50.956;6.918;2023-04-07T03:53:28;100908.22;;;8.14;91.59
49473;BME280;67434;50.956;6.918;2023-04-07T03:56:13;100907.53;;;8.07;92.00
49473;BME280;67434;50.956;6.918;2023-04-07T03:58:59;100914.09;;;8.11;91.73
49473;BME280;67434;50.956;6.918;2023-04-07T04:01:45;100912.91;;;8.07;91.43
49473;BME280;67434;50.956;6.918;2023-04-07T04:04:30;100914.22;;;8.04;91.70
49473;BME280;67434;50.956;6.918;2023-04-07T04:07:16;100913.53;;;7.97;92.22
49473;BME280;67434;50.956;6.918;2023-04-07T04:10:02;100917.50;;;8.06;91.25
49473;BME280;67434;50.956;6.918;2023-04-07T04:12:48;100921.00;;;8.07;90.94
49473;BME280;67434;50.956;6.918;2023-04-07T04:15:33;100924.03;;;8.10;91.01
49473;BME280;67434;50.956;6.918;2023-04-07T04:18:19;100935.75;;;8.04;90.75
49473;BME280;67434;50.956;6.918;2023-04-07T04:21:05;100932.59;;;7.96;90.77
49473;BME280;67434;50.956;6.918;2023-04-07T04:23:51;100927.44;;;7.94;90.63
49473;BME280;67434;50.956;6.918;2023-04-07T04:26:37;100926.97;;;7.97;90.91
49473;BME280;67434;50.956;6.918;2023-04-07T04:29:23;100936.69;;;7.98;90.88
49473;BME280;67434;50.956;6.918;2023-04-07T04:32:08;100934.81;;;7.99;90.38
49473;BME280;67434;50.956;6.918;2023-04-07T04:34:54;100940.44;;;7.97;91.06
49473;BME280;67434;50.956;6.918;2023-04-07T04:37:39;100935.28;;;7.96;90.95
49473;BME280;67434;50.956;6.918;2023-04-07T04:40:25;100942.66;;;7.89;91.36
49473;BME280;67434;50.956;6.918;2023-04-07T04:43:11;100949.09;;;7.88;91.49
49473;BME280;67434;50.956;6.918;2023-04-07T04:45:57;100950.63;;;7.95;90.82
49473;BME280;67434;50.956;6.918;2023-04-07T04:48:43;100942.06;;;7.98;91.18
49473;BME280;67434;50.956;6.918;2023-04-07T04:51:28;100949.81;;;7.95;91.08
49473;BME280;67434;50.956;6.918;2023-04-07T04:54:15;100952.03;;;7.86;91.77
49473;BME280;67434;50.956;6.918;2023-04-07T04:57:01;100954.50;;;7.88;91.16
49473;BME280;67434;50.956;6.918;2023-04-07T04:59:46;100951.56;;;7.89;91.33
49473;BME280;67434;50.956;6.918;2023-04-07T05:02:32;100959.28;;;7.86;91.34
49473;BME280;67434;50.956;6.918;2023-04-07T05:05:18;100969.59;;;7.89;91.04
49473;BME280;67434;50.956;6.918;2023-04-07T05:08:04;100962.91;;;7.91;90.19
49473;BME280;67434;50.956;6.918;2023-04-07T05:10:49;100963.16;;;7.90;90.84
49473;BME280;67434;50.956;6.918;2023-04-07T05:13:35;100965.13;;;7.82;91.17
49473;BME280;67434;50.956;6.918;2023-04-07T05:16:21;100969.22;;;7.85;91.33
49473;BME280;67434;50.956;6.918;2023-04-07T05:19:06;100971.34;;;7.95;90.45
49473;BME280;67434;50.956;6.918;2023-04-07T05:21:52;100969.59;;;7.89;90.70
49473;BME280;67434;50.956;6.918;2023-04-07T05:24:37;100977.91;;;7.87;90.62
49473;BME280;67434;50.956;6.918;2023-04-07T05:27:23;100974.16;;;7.88;90.01
49473;BME280;67434;50.956;6.918;2023-04-07T05:30:09;100972.63;;;7.92;89.51
49473;BME280;67434;50.956;6.918;2023-04-07T05:32:54;100967.13;;;7.87;89.47
49473;BME280;67434;50.956;6.918;2023-04-07T05:35:41;100978.94;;;7.86;90.29
49473;BME280;67434;50.956;6.918;2023-04-07T05:38:28;100975.78;;;7.89;89.94
49473;BME280;67434;50.956;6.918;2023-04-07T05:41:13;100976.84;;;7.88;89.61
49473;BME280;67434;50.956;6.918;2023-04-07T05:43:59;100989.38;;;7.94;89.22
49473;BME280;67434;50.956;6.918;2023-04-07T05:46:44;100987.59;;;7.88;88.78
49473;BME280;67434;50.956;6.918;2023-04-07T05:49:30;100985.84;;;7.82;89.26
49473;BME280;67434;50.956;6.918;2023-04-07T05:52:16;100985.38;;;7.85;88.91
49473;BME280;67434;50.956;6.918;2023-04-07T05:55:01;100988.53;;;7.82;89.23
49473;BME280;67434;50.956;6.918;2023-04-07T05:57:47;100992.94;;;7.76;89.28
49473;BME280;67434;50.956;6.918;2023-04-07T06:00:33;100994.34;;;7.79;90.16
49473;BME280;67434;50.956;6.918;2023-04-07T06:03:19;101000.56;;;7.79;89.55
49473;BME280;67434;50.956;6.918;2023-04-07T06:06:05;101001.13;;;7.70;90.08
49473;BME280;67434;50.956;6.918;2023-04-07T06:08:51;101007.22;;;7.65;90.18
49473;BME280;67434;50.956;6.918;2023-04-07T06:11:36;101015.63;;;7.69;90.25
49473;BME280;67434;50.956;6.918;2023-04-07T06:14:22;101011.09;;;7.69;89.88
49473;BME280;67434;50.956;6.918;2023-04-07T06:17:08;101008.75;;;7.73;90.51
49473;BME280;67434;50.956;6.918;2023-04-07T06:19:53;101020.69;;;7.77;90.36
49473;BME280;67434;50.956;6.918;2023-04-07T06:22:39;101017.16;;;7.76;90.25
49473;BME280;67434;50.956;6.918;2023-04-07T06:25:25;101023.38;;;7.77;90.12
49473;BME280;67434;50.956;6.918;2023-04-07T06:28:10;101025.47;;;7.75;90.06
49473;BME280;67434;50.956;6.918;2023-04-07T06:30:57;101028.28;;;7.80;89.65
49473;BME280;67434;50.956;6.918;2023-04-07T06:33:44;101033.09;;;7.78;89.82
49473;BME280;67434;50.956;6.918;2023-04-07T06:36:30;101034.84;;;7.72;89.89
49473;BME280;67434;50.956;6.918;2023-04-07T06:39:15;101042.09;;;7.72;90.11
49473;BME280;67434;50.956;6.918;2023-04-07T06:42:01;101039.84;;;7.69;90.02
49473;BME280;67434;50.956;6.918;2023-04-07T06:44:46;101038.47;;;7.78;90.00
49473;BME280;67434;50.956;6.918;2023-04-07T06:47:32;101045.41;;;7.86;89.65
49473;BME280;67434;50.956;6.918;2023-04-07T06:50:18;101044.34;;;7.87;89.33
49473;BME280;67434;50.956;6.918;2023-04-07T06:53:06;101049.97;;;7.85;89.74
49473;BME280;67434;50.956;6.918;2023-04-07T06:56:05;101050.34;;;7.89;89.54
49473;BME280;67434;50.956;6.918;2023-04-07T06:58:51;101051.75;;;7.91;89.64
49473;BME280;67434;50.956;6.918;2023-04-07T07:01:36;101052.69;;;7.97;89.30
49473;BME280;67434;50.956;6.918;2023-04-07T07:04:22;101057.03;;;8.09;89.50
49473;BME280;67434;50.956;6.918;2023-04-07T07:07:07;101064.63;;;8.12;89.03
49473;BME280;67434;50.956;6.918;2023-04-07T07:09:53;101057.94;;;8.03;88.86
49473;BME280;67434;50.956;6.918;2023-04-07T07:12:39;101071.53;;;8.08;88.52
49473;BME280;67434;50.956;6.918;2023-04-07T07:15:24;101067.31;;;8.12;88.73
49473;BME280;67434;50.956;6.918;2023-04-07T07:18:11;101071.66;;;8.13;88.49
49473;BME280;67434;50.956;6.918;2023-04-07T07:20:56;101069.13;;;8.19;88.53
49473;BME280;67434;50.956;6.918;2023-04-07T07:23:42;101074.00;;;8.10;87.87
49473;BME280;67434;50.956;6.918;2023-04-07T07:26:28;101078.84;;;8.20;88.35
49473;BME280;67434;50.956;6.918;2023-04-07T07:29:14;101076.25;;;8.25;87.60
49473;BME280;67434;50.956;6.918;2023-04-07T07:32:00;101082.09;;;8.22;87.94
49473;BME280;67434;50.956;6.918;2023-04-07T07:34:45;101085.97;;;8.26;88.12
49473;BME280;67434;50.956;6.918;2023-04-07T07:37:31;101082.34;;;8.32;88.12
49473;BME280;67434;50.956;6.918;2023-04-07T07:40:17;101086.91;;;8.31;87.58
49473;BME280;67434;50.956;6.918;2023-04-07T07:43:03;101089.28;;;8.39;87.52
49473;BME280;67434;50.956;6.918;2023-04-07T07:45:49;101088.94;;;8.36;86.67
49473;BME280;67434;50.956;6.918;2023-04-07T07:48:34;101087.97;;;8.30;87.31
49473;BME280;67434;50.956;6.918;2023-04-07T07:51:20;101088.59;;;8.44;87.36
49473;BME280;67434;50.956;6.918;2023-04-07T07:54:06;101090.94;;;8.64;86.06
49473;BME280;67434;50.956;6.918;2023-04-07T07:56:52;101082.34;;;8.78;85.71
49473;BME280;67434;50.956;6.918;2023-04-07T07:59:38;101088.91;;;8.83;85.23
49473;BME280;67434;50.956;6.918;2023-04-07T08:02:25;101098.16;;;8.87;85.87
49473;BME280;67434;50.956;6.918;2023-04-07T08:05:15;101099.09;;;9.04;84.03
49473;BME280;67434;50.956;6.918;2023-04-07T08:08:00;101100.16;;;9.03;83.89
49473;BME280;67434;50.956;6.918;2023-04-07T08:10:47;101097.56;;;9.08;83.28
49473;BME280;67434;50.956;6.918;2023-04-07T08:13:33;101107.38;;;9.14;83.42
49473;BME280;67434;50.956;6.918;2023-04-07T08:16:19;101099.41;;;9.19;83.36
49473;BME280;67434;50.956;6.918;2023-04-07T08:19:06;101110.19;;;9.19;82.82
49473;BME280;67434;50.956;6.918;2023-04-07T08:21:52;101112.88;;;9.19;82.74
49473;BME280;67434;50.956;6.918;2023-04-07T08:24:37;101118.19;;;9.14;82.51
49473;BME280;67434;50.956;6.918;2023-04-07T08:27:23;101122.50;;;9.15;83.42
49473;BME280;67434;50.956;6.918;2023-04-07T08:30:09;101113.19;;;8.94;83.72
49473;BME280;67434;50.956;6.918;2023-04-07T08:32:55;101121.94;;;8.90;83.85
49473;BME280;67434;50.956;6.918;2023-04-07T08:35:41;101130.88;;;9.02;83.46
49473;BME280;67434;50.956;6.918;2023-04-07T08:38:26;101137.09;;;9.02;83.61
49473;BME280;67434;50.956;6.918;2023-04-07T08:41:16;101136.81;;;9.16;82.99
49473;BME280;67434;50.956;6.918;2023-04-07T08:44:05;101128.81;;;9.21;83.32
49473;BME280;67434;50.956;6.918;2023-04-07T08:46:53;101134.34;;;9.14;82.50
49473;BME280;67434;50.956;6.918;2023-04-07T08:49:43;101130.03;;;9.13;82.38
49473;BME280;67434;50.956;6.918;2023-04-07T08:55:37;101141.00;;;9.23;81.84
49473;BME280;67434;50.956;6.918;2023-04-07T08:58:23;101138.81;;;9.20;81.99
49473;BME280;67434;50.956;6.918;2023-04-07T09:01:09;101143.72;;;9.23;82.03
49473;BME280;67434;50.956;6.918;2023-04-07T09:03:56;101141.00;;;9.35;81.58
49473;BME280;67434;50.956;6.918;2023-04-07T09:06:42;101143.56;;;9.42;81.39
49473;BME280;67434;50.956;6.918;2023-04-07T09:09:28;101146.06;;;9.31;81.56
49473;BME280;67434;50.956;6.918;2023-04-07T09:12:14;101150.50;;;9.37;81.91
49473;BME280;67434;50.956;6.918;2023-04-07T09:15:00;101147.91;;;9.43;81.15
49473;BME280;67434;50.956;6.918;2023-04-07T09:17:46;101148.00;;;9.48;81.01
49473;BME280;67434;50.956;6.918;2023-04-07T09:20:58;101154.06;;;9.55;81.01
49473;BME280;67434;50.956;6.918;2023-04-07T09:23:44;101163.91;;;9.73;81.63
49473;BME280;67434;50.956;6.918;2023-04-07T09:26:30;101163.19;;;9.65;80.03
49473;BME280;67434;50.956;6.918;2023-04-07T09:29:19;101158.09;;;9.81;80.40
49473;BME280;67434;50.956;6.918;2023-04-07T09:32:05;101160.31;;;9.84;79.74
49473;BME280;67434;50.956;6.918;2023-04-07T09:34:57;101165.88;;;9.77;79.61
49473;BME280;67434;50.956;6.918;2023-04-07T09:37:43;101160.84;;;9.69;80.27
49473;BME280;67434;50.956;6.918;2023-04-07T09:40:29;101161.19;;;9.73;80.36
49473;BME280;67434;50.956;6.918;2023-04-07T09:43:16;101162.19;;;9.55;80.54
49473;BME280;67434;50.956;6.918;2023-04-07T09:46:13;101161.22;;;9.61;80.39
49473;BME280;67434;50.956;6.918;2023-04-07T09:49:03;101164.97;;;9.60;80.24
49473;BME280;67434;50.956;6.918;2023-04-07T09:51:57;101178.38;;;9.55;80.80
49473;BME280;67434;50.956;6.918;2023-04-07T09:54:45;101173.16;;;9.65;80.72
49473;BME280;67434;50.956;6.918;2023-04-07T09:57:31;101168.66;;;9.82;80.05
49473;BME280;67434;50.956;6.918;2023-04-07T10:00:17;101177.53;;;10.23;78.29
49473;BME280;67434;50.956;6.918;2023-04-07T10:03:03;101172.38;;;10.72;76.74
49473;BME280;67434;50.956;6.918;2023-04-07T10:05:49;101171.06;;;10.74;75.79
49473;BME280;67434;50.956;6.918;2023-04-07T10:08:37;101172.13;;;10.40;76.90
49473;BME280;67434;50.956;6.918;2023-04-07T10:11:23;101176.09;;;9.63;80.35
49473;BME280;67434;50.956;6.918;2023-04-07T10:14:10;101175.44;;;9.56;81.59
49473;BME280;67434;50.956;6.918;2023-04-07T10:16:56;101172.09;;;9.78;81.45
49473;BME280;67434;50.956;6.918;2023-04-07T10:19:45;101180.81;;;9.96;80.77
49473;BME280;67434;50.956;6.918;2023-04-07T10:22:34;101177.00;;;10.09;80.33
49473;BME280;67434;50.956;6.918;2023-04-07T10:25:22;101186.72;;;10.22;80.82
49473;BME280;67434;50.956;6.918;2023-04-07T10:28:09;101187.91;;;10.43;79.10
49473;BME280;67434;50.956;6.918;2023-04-07T10:30:57;101195.97;;;10.26;78.95
49473;BME280;67434;50.956;6.918;2023-04-07T10:33:51;101187.38;;;10.29;79.02
49473;BME280;67434;50.956;6.918;2023-04-07T10:37:12;101199.59;;;10.65;78.02
49473;BME280;67434;50.956;6.918;2023-04-07T10:43:07;101198.38;;;10.11;79.60
49473;BME280;67434;50.956;6.918;2023-04-07T10:45:56;101199.13;;;9.94;80.66
49473;BME280;67434;50.956;6.918;2023-04-07T10:49:09;101196.19;;;9.96;81.38
49473;BME280;67434;50.956;6.918;2023-04-07T10:52:22;101203.19;;;9.80;81.13
49473;BME280;67434;50.956;6.918;2023-04-07T10:55:27;101207.25;;;9.54;82.47
49473;BME280;67434;50.956;6.918;2023-04-07T10:58:23;101206.34;;;9.37;83.34
49473;BME280;67434;50.956;6.918;2023-04-07T11:03:56;101216.91;;;9.15;82.86
49473;BME280;67434;50.956;6.918;2023-04-07T11:06:46;101218.44;;;9.23;83.19
49473;BME280;67434;50.956;6.918;2023-04-07T11:09:32;101215.00;;;9.27;82.64
49473;BME280;67434;50.956;6.918;2023-04-07T11:12:22;101215.50;;;9.36;81.54
49473;BME280;67434;50.956;6.918;2023-04-07T11:15:20;101211.00;;;9.53;81.11
49473;BME280;67434;50.956;6.918;2023-04-07T11:18:18;101207.00;;;9.96;80.09
49473;BME280;67434;50.956;6.918;2023-04-07T11:21:04;101216.06;;;10.18;79.07
49473;BME280;67434;50.956;6.918;2023-04-07T11:23:51;101211.25;;;10.49;77.59
49473;BME280;67434;50.956;6.918;2023-04-07T11:26:39;101218.44;;;10.77;76.48
49473;BME280;67434;50.956;6.918;2023-04-07T11:29:32;101214.84;;;10.88;76.28
49473;BME280;67434;50.956;6.918;2023-04-07T11:32:22;101218.13;;;10.90;76.43
49473;BME280;67434;50.956;6.918;2023-04-07T11:35:10;101219.44;;;10.87;76.59
49473;BME280;67434;50.956;6.918;2023-04-07T11:37:59;101222.88;;;10.66;76.53
49473;BME280;67434;50.956;6.918;2023-04-07T11:40:46;101225.97;;;10.75;76.50
49473;BME280;67434;50.956;6.918;2023-04-07T11:43:32;101223.66;;;10.33;77.37
49473;BME280;67434;50.956;6.918;2023-04-07T11:46:18;101225.72;;;10.59;76.66
49473;BME280;67434;50.956;6.918;2023-04-07T11:49:12;101230.72;;;10.68;75.95
49473;BME280;67434;50.956;6.918;2023-04-07T11:52:02;101227.28;;;10.55;76.06
49473;BME280;67434;50.956;6.918;2023-04-07T11:54:48;101235.50;;;10.94;75.16
49473;BME280;67434;50.956;6.918;2023-04-07T11:57:39;101233.69;;;10.83;75.39
49473;BME280;67434;50.956;6.918;2023-04-07T12:00:24;101247.03;;;10.56;75.81
49473;BME280;67434;50.956;6.918;2023-04-07T12:03:10;101243.84;;;10.59;75.43
49473;BME280;67434;50.956;6.918;2023-04-07T12:06:01;101242.31;;;10.80;75.69
49473;BME280;67434;50.956;6.918;2023-04-07T12:08:47;101245.66;;;10.87;75.43
49473;BME280;67434;50.956;6.918;2023-04-07T12:11:33;101251.41;;;10.90;75.87
49473;BME280;67434;50.956;6.918;2023-04-07T12:14:20;101246.81;;;11.46;73.87
49473;BME280;67434;50.956;6.918;2023-04-07T12:17:06;101253.47;;;11.39;73.43
49473;BME280;67434;50.956;6.918;2023-04-07T12:19:54;101248.41;;;11.25;74.18
49473;BME280;67434;50.956;6.918;2023-04-07T12:22:40;101251.88;;;11.21;72.48
49473;BME280;67434;50.956;6.918;2023-04-07T12:25:26;101252.13;;;11.19;72.53
49473;BME280;67434;50.956;6.918;2023-04-07T12:28:12;101251.94;;;11.26;72.82
49473;BME280;67434;50.956;6.918;2023-04-07T12:30:58;101266.97;;;11.55;71.70
49473;BME280;67434;50.956;6.918;2023-04-07T12:33:44;101248.38;;;11.81;70.00
49473;BME280;67434;50.956;6.918;2023-04-07T12:36:29;101260.03;;;12.03;70.14
49473;BME280;67434;50.956;6.918;2023-04-07T12:39:15;101255.28;;;11.33;70.68
49473;BME280;67434;50.956;6.918;2023-04-07T12:42:01;101260.09;;;11.48;70.65
49473;BME280;67434;50.956;6.918;2023-04-07T12:44:46;101261.63;;;11.22;71.73
49473;BME280;67434;50.956;6.918;2023-04-07T12:47:32;101258.09;;;11.21;71.39
49473;BME280;67434;50.956;6.918;2023-04-07T12:50:18;101264.09;;;11.23;71.38
49473;BME280;67434;50.956;6.918;2023-04-07T12:53:04;101270.72;;;11.33;71.17
49473;BME280;67434;50.956;6.918;2023-04-07T12:55:49;101273.66;;;11.14;72.05
49473;BME280;67434;50.956;6.918;2023-04-07T12:58:35;101270.75;;;11.16;72.80
49473;BME280;67434;50.956;6.918;2023-04-07T13:01:21;101272.53;;;10.93;72.97
49473;BME280;67434;50.956;6.918;2023-04-07T13:04:07;101274.06;;;10.73;75.08
49473;BME280;67434;50.956;6.918;2023-04-07T13:06:53;101276.28;;;10.59;76.35
49473;BME280;67434;50.956;6.918;2023-04-07T13:09:39;101274.97;;;10.61;76.87
49473;BME280;67434;50.956;6.918;2023-04-07T13:12:27;101279.56;;;10.78;77.12
49473;BME280;67434;50.956;6.918;2023-04-07T13:15:13;101278.03;;;11.15;75.89
49473;BME280;67434;50.956;6.918;2023-04-07T13:17:59;101283.34;;;11.27;74.64
49473;BME280;67434;50.956;6.918;2023-04-07T13:20:45;101273.19;;;11.17;75.17
49473;BME280;67434;50.956;6.918;2023-04-07T13:23:31;101283.13;;;10.95;76.13
49473;BME280;67434;50.956;6.918;2023-04-07T13:26:16;101281.88;;;11.19;76.08
49473;BME280;67434;50.956;6.918;2023-04-07T13:29:02;101277.94;;;11.27;75.06
49473;BME280;67434;50.956;6.918;2023-04-07T13:31:48;101281.69;;;11.43;74.27
49473;BME280;67434;50.956;6.918;2023-04-07T13:34:35;101277.66;;;11.45;74.44
49473;BME280;67434;50.956;6.918;2023-04-07T13:37:21;101276.53;;;11.80;73.02
49473;BME280;67434;50.956;6.918;2023-04-07T13:40:07;101276.91;;;12.10;72.08
49473;BME280;67434;50.956;6.918;2023-04-07T13:42:53;101277.56;;;12.23;71.37
49473;BME280;67434;50.956;6.918;2023-04-07T13:45:38;101288.97;;;11.59;71.52
49473;BME280;67434;50.956;6.918;2023-04-07T13:48:24;101281.84;;;11.53;71.84
49473;BME280;67434;50.956;6.918;2023-04-07T13:51:10;101279.25;;;11.24;72.78
49473;BME280;67434;50.956;6.918;2023-04-07T13:53:55;101280.25;;;11.18;72.76
49473;BME280;67434;50.956;6.918;2023-04-07T13:56:41;101278.75;;;11.27;71.06
49473;BME280;67434;50.956;6.918;2023-04-07T13:59:27;101272.72;;;11.59;72.45
49473;BME280;67434;50.956;6.918;2023-04-07T14:02:13;101292.78;;;11.24;72.38
49473;BME280;67434;50.956;6.918;2023-04-07T14:04:59;101266.25;;;11.43;72.91
49473;BME280;67434;50.956;6.918;2023-04-07T14:07:45;101270.91;;;11.86;71.41
49473;BME280;67434;50.956;6.918;2023-04-07T14:10:31;101270.94;;;12.35;69.02
49473;BME280;67434;50.956;6.918;2023-04-07T14:13:18;101263.44;;;12.42;68.48
49473;BME280;67434;50.956;6.918;2023-04-07T14:16:04;101278.91;;;12.20;68.32
49473;BME280;67434;50.956;6.918;2023-04-07T14:18:50;101277.72;;;11.89;69.35
49473;BME280;67434;50.956;6.918;2023-04-07T14:21:35;101282.03;;;11.30;71.45
49473;BME280;67434;50.956;6.918;2023-04-07T14:24:21;101273.84;;;11.24;71.56
49473;BME280;67434;50.956;6.918;2023-04-07T14:27:07;101278.00;;;11.32;70.75
49473;BME280;67434;50.956;6.918;2023-04-07T14:29:54;101278.75;;;11.11;71.92
49473;BME280;67434;50.956;6.918;2023-04-07T14:32:42;101273.03;;;10.90;74.62
49473;BME280;67434;50.956;6.918;2023-04-07T14:35:27;101278.91;;;10.71;77.34
49473;BME280;67434;50.956;6.918;2023-04-07T14:38:13;101279.56;;;10.61;78.68
49473;BME280;67434;50.956;6.918;2023-04-07T14:40:59;101283.81;;;10.57;79.31
49473;BME280;67434;50.956;6.918;2023-04-07T14:43:47;101280.38;;;10.45;79.19
49473;BME280;67434;50.956;6.918;2023-04-07T14:46:37;101279.47;;;10.56;78.59
49473;BME280;67434;50.956;6.918;2023-04-07T14:49:23;101274.78;;;10.51;78.58
49473;BME280;67434;50.956;6.918;2023-04-07T14:52:12;101284.47;;;10.64;78.81
49473;BME280;67434;50.956;6.918;2023-04-07T14:54:58;101288.59;;;11.00;77.25